sensor_id;sensor_type;location;lat;lon;timestamp;temperature;humidity
921;DHT22;447;51.332;6.778;2023-07-30T00:00:33;23.60;94.10
921;DHT22;447;51.332;6.778;2023-07-30T00:02:59;23.50;94.00
921;DHT22;447;51.332;6.778;2023-07-30T00:05:25;23.50;93.90
921;DHT22;447;51.332;6.778;2023-07-30T00:07:51;23.50;93.90
921;DHT22;447;51.332;6.778;2023-07-30T00:10:20;23.50;93.80
921;DHT22;447;51.332;6.778;2023-07-30T00:12:46;23.50;93.80
921;DHT22;447;51.332;6.778;2023-07-30T00:15:12;23.50;93.80
921;DHT22;447;51.332;6.778;2023-07-30T00:17:41;23.50;93.80
921;DHT22;447;51.332;6.778;2023-07-30T00:20:09;23.50;93.70
921;DHT22;447;51.332;6.778;2023-07-30T00:22:38;23.50;93.70
921;DHT22;447;51.332;6.778;2023-07-30T00:25:04;23.40;93.60
921;DHT22;447;51.332;6.778;2023-07-30T00:27:32;23.40;93.60
921;DHT22;447;51.332;6.778;2023-07-30T00:30:00;23.40;93.50
921;DHT22;447;51.332;6.778;2023-07-30T00:32:29;23.40;93.50
921;DHT22;447;51.332;6.778;2023-07-30T00:35:02;23.40;93.50
921;DHT22;447;51.332;6.778;2023-07-30T00:37:29;23.40;93.50
921;DHT22;447;51.332;6.778;2023-07-30T00:39:57;23.40;93.50
921;DHT22;447;51.332;6.778;2023-07-30T00:42:25;23.30;93.40
921;DHT22;447;51.332;6.778;2023-07-30T00:44:56;23.30;93.40
921;DHT22;447;51.332;6.778;2023-07-30T00:47:26;23.30;93.40
921;DHT22;447;51.332;6.778;2023-07-30T00:49:57;23.30;93.40
921;DHT22;447;51.332;6.778;2023-07-30T00:52:25;23.30;93.40
921;DHT22;447;51.332;6.778;2023-07-30T00:54:57;23.30;93.30
921;DHT22;447;51.332;6.778;2023-07-30T00:57:23;23.30;93.30
921;DHT22;447;51.332;6.778;2023-07-30T00:59:52;23.20;93.20
921;DHT22;447;51.332;6.778;2023-07-30T01:02:18;23.20;93.20
921;DHT22;447;51.332;6.778;2023-07-30T01:04:46;23.20;93.20
921;DHT22;447;51.332;6.778;2023-07-30T01:07:15;23.20;93.20
921;DHT22;447;51.332;6.778;2023-07-30T01:09:42;23.20;93.20
921;DHT22;447;51.332;6.778;2023-07-30T01:12:08;23.20;93.20
921;DHT22;447;51.332;6.778;2023-07-30T01:14:35;23.20;93.20
921;DHT22;447;51.332;6.778;2023-07-30T01:17:06;23.20;93.20
921;DHT22;447;51.332;6.778;2023-07-30T01:19:35;23.10;93.10
921;DHT22;447;51.332;6.778;2023-07-30T01:22:01;23.10;93.10
921;DHT22;447;51.332;6.778;2023-07-30T01:24:28;23.10;93.00
921;DHT22;447;51.332;6.778;2023-07-30T01:26:59;23.10;93.00
921;DHT22;447;51.332;6.778;2023-07-30T01:29:54;23.10;93.00
921;DHT22;447;51.332;6.778;2023-07-30T01:32:25;23.10;93.00
921;DHT22;447;51.332;6.778;2023-07-30T01:34:56;23.10;93.30
921;DHT22;447;51.332;6.778;2023-07-30T01:37:25;23.00;92.90
921;DHT22;447;51.332;6.778;2023-07-30T01:39:52;23.00;92.90
921;DHT22;447;51.332;6.778;2023-07-30T01:42:18;23.00;92.90
921;DHT22;447;51.332;6.778;2023-07-30T01:44:47;23.00;92.80
921;DHT22;447;51.332;6.778;2023-07-30T01:47:12;23.00;92.80
921;DHT22;447;51.332;6.778;2023-07-30T01:49:38;23.00;92.70
921;DHT22;447;51.332;6.778;2023-07-30T01:52:09;23.00;92.70
921;DHT22;447;51.332;6.778;2023-07-30T01:54:35;23.00;92.70
921;DHT22;447;51.332;6.778;2023-07-30T01:57:04;22.90;92.70
921;DHT22;447;51.332;6.778;2023-07-30T01:59:32;22.90;92.60
921;DHT22;447;51.332;6.778;2023-07-30T02:01:58;22.90;92.60
921;DHT22;447;51.332;6.778;2023-07-30T02:04:26;22.90;92.60
921;DHT22;447;51.332;6.778;2023-07-30T02:06:54;22.90;92.60
921;DHT22;447;51.332;6.778;2023-07-30T02:09:23;22.90;92.60
921;DHT22;447;51.332;6.778;2023-07-30T02:11:52;22.90;92.60
921;DHT22;447;51.332;6.778;2023-07-30T02:14:18;22.90;92.60
921;DHT22;447;51.332;6.778;2023-07-30T02:16:47;22.80;92.50
921;DHT22;447;51.332;6.778;2023-07-30T02:19:13;22.80;92.50
921;DHT22;447;51.332;6.778;2023-07-30T02:21:39;22.80;92.50
921;DHT22;447;51.332;6.778;2023-07-30T02:24:10;22.80;92.50
921;DHT22;447;51.332;6.778;2023-07-30T02:26:41;22.80;92.50
921;DHT22;447;51.332;6.778;2023-07-30T02:29:09;22.80;92.40
921;DHT22;447;51.332;6.778;2023-07-30T02:31:38;22.80;92.50
921;DHT22;447;51.332;6.778;2023-07-30T02:34:03;22.80;92.50
921;DHT22;447;51.332;6.778;2023-07-30T02:36:30;22.70;92.40
921;DHT22;447;51.332;6.778;2023-07-30T02:38:58;22.70;92.30
921;DHT22;447;51.332;6.778;2023-07-30T02:41:26;22.70;92.30
921;DHT22;447;51.332;6.778;2023-07-30T02:43:53;22.70;92.30
921;DHT22;447;51.332;6.778;2023-07-30T02:46:19;22.70;92.30
921;DHT22;447;51.332;6.778;2023-07-30T02:48:47;22.70;92.30
921;DHT22;447;51.332;6.778;2023-07-30T02:51:13;22.70;92.20
921;DHT22;447;51.332;6.778;2023-07-30T02:53:44;22.60;92.10
921;DHT22;447;51.332;6.778;2023-07-30T02:56:12;22.60;92.10
921;DHT22;447;51.332;6.778;2023-07-30T02:58:38;22.60;92.10
921;DHT22;447;51.332;6.778;2023-07-30T03:01:10;22.60;92.10
921;DHT22;447;51.332;6.778;2023-07-30T03:03:38;22.60;92.10
921;DHT22;447;51.332;6.778;2023-07-30T03:06:04;22.60;92.10
921;DHT22;447;51.332;6.778;2023-07-30T03:08:32;22.50;92.00
921;DHT22;447;51.332;6.778;2023-07-30T03:11:01;22.50;92.00
921;DHT22;447;51.332;6.778;2023-07-30T03:13:27;22.50;92.00
921;DHT22;447;51.332;6.778;2023-07-30T03:15:55;22.50;92.00
921;DHT22;447;51.332;6.778;2023-07-30T03:18:21;22.50;92.00
921;DHT22;447;51.332;6.778;2023-07-30T03:20:50;22.50;92.00
921;DHT22;447;51.332;6.778;2023-07-30T03:23:18;22.50;92.00
921;DHT22;447;51.332;6.778;2023-07-30T03:25:49;22.50;91.90
921;DHT22;447;51.332;6.778;2023-07-30T03:28:18;22.40;91.90
921;DHT22;447;51.332;6.778;2023-07-30T03:30:46;22.40;91.90
921;DHT22;447;51.332;6.778;2023-07-30T03:33:15;22.40;91.80
921;DHT22;447;51.332;6.778;2023-07-30T03:35:42;22.40;91.80
921;DHT22;447;51.332;6.778;2023-07-30T03:38:08;22.40;91.80
921;DHT22;447;51.332;6.778;2023-07-30T03:40:38;22.40;91.90
921;DHT22;447;51.332;6.778;2023-07-30T03:43:04;22.40;91.90
921;DHT22;447;51.332;6.778;2023-07-30T03:45:37;22.40;91.80
921;DHT22;447;51.332;6.778;2023-07-30T03:48:03;22.30;91.80
921;DHT22;447;51.332;6.778;2023-07-30T03:50:36;22.30;91.80
921;DHT22;447;51.332;6.778;2023-07-30T03:53:09;22.30;91.80
921;DHT22;447;51.332;6.778;2023-07-30T03:55:37;22.30;91.80
921;DHT22;447;51.332;6.778;2023-07-30T03:58:03;22.30;91.70
921;DHT22;447;51.332;6.778;2023-07-30T04:00:29;22.30;91.70
921;DHT22;447;51.332;6.778;2023-07-30T04:02:55;22.30;91.70
921;DHT22;447;51.332;6.778;2023-07-30T04:05:21;22.20;91.70
921;DHT22;447;51.332;6.778;2023-07-30T04:07:47;22.20;91.60
921;DHT22;447;51.332;6.778;2023-07-30T04:10:13;22.20;91.60
921;DHT22;447;51.332;6.778;2023-07-30T04:12:44;22.20;91.60
921;DHT22;447;51.332;6.778;2023-07-30T04:15:10;22.20;91.60
921;DHT22;447;51.332;6.778;2023-07-30T04:17:41;22.20;91.60
921;DHT22;447;51.332;6.778;2023-07-30T04:20:08;22.20;91.60
921;DHT22;447;51.332;6.778;2023-07-30T04:22:36;22.20;91.60
921;DHT22;447;51.332;6.778;2023-07-30T04:25:03;22.20;91.60
921;DHT22;447;51.332;6.778;2023-07-30T04:27:32;22.10;91.60
921;DHT22;447;51.332;6.778;2023-07-30T04:30:01;22.10;91.60
921;DHT22;447;51.332;6.778;2023-07-30T04:32:29;22.10;91.60
921;DHT22;447;51.332;6.778;2023-07-30T04:34:55;22.10;91.60
921;DHT22;447;51.332;6.778;2023-07-30T04:37:23;22.10;91.60
921;DHT22;447;51.332;6.778;2023-07-30T04:39:53;22.10;91.60
921;DHT22;447;51.332;6.778;2023-07-30T04:42:25;22.10;91.60
921;DHT22;447;51.332;6.778;2023-07-30T04:44:51;22.10;91.60
921;DHT22;447;51.332;6.778;2023-07-30T04:47:20;22.00;91.60
921;DHT22;447;51.332;6.778;2023-07-30T04:49:48;22.00;91.60
921;DHT22;447;51.332;6.778;2023-07-30T04:52:18;22.00;91.60
921;DHT22;447;51.332;6.778;2023-07-30T04:54:44;22.00;91.60
921;DHT22;447;51.332;6.778;2023-07-30T04:57:15;22.00;91.60
921;DHT22;447;51.332;6.778;2023-07-30T04:59:41;22.00;91.60
921;DHT22;447;51.332;6.778;2023-07-30T05:02:09;22.00;91.60
921;DHT22;447;51.332;6.778;2023-07-30T05:04:42;22.00;91.60
921;DHT22;447;51.332;6.778;2023-07-30T05:07:11;22.00;91.60
921;DHT22;447;51.332;6.778;2023-07-30T05:09:39;22.00;91.60
921;DHT22;447;51.332;6.778;2023-07-30T05:12:05;22.00;91.60
921;DHT22;447;51.332;6.778;2023-07-30T05:14:34;22.00;91.60
921;DHT22;447;51.332;6.778;2023-07-30T05:17:00;21.90;91.60
921;DHT22;447;51.332;6.778;2023-07-30T05:19:29;21.90;91.60
921;DHT22;447;51.332;6.778;2023-07-30T05:21:55;21.90;91.60
921;DHT22;447;51.332;6.778;2023-07-30T05:24:21;21.90;91.70
921;DHT22;447;51.332;6.778;2023-07-30T05:26:47;21.90;91.70
921;DHT22;447;51.332;6.778;2023-07-30T05:29:17;21.90;91.70
921;DHT22;447;51.332;6.778;2023-07-30T05:31:43;21.90;91.70
921;DHT22;447;51.332;6.778;2023-07-30T05:34:09;21.90;91.70
921;DHT22;447;51.332;6.778;2023-07-30T05:36:38;21.90;91.70
921;DHT22;447;51.332;6.778;2023-07-30T05:39:06;21.80;91.70
921;DHT22;447;51.332;6.778;2023-07-30T05:41:32;21.80;91.70
921;DHT22;447;51.332;6.778;2023-07-30T05:44:05;21.80;91.70
921;DHT22;447;51.332;6.778;2023-07-30T05:46:31;21.80;91.70
921;DHT22;447;51.332;6.778;2023-07-30T05:48:57;21.80;91.70
921;DHT22;447;51.332;6.778;2023-07-30T05:51:25;21.80;91.90
921;DHT22;447;51.332;6.778;2023-07-30T05:53:51;21.80;91.70
921;DHT22;447;51.332;6.778;2023-07-30T05:56:20;21.80;91.70
921;DHT22;447;51.332;6.778;2023-07-30T05:58:49;21.80;91.70
921;DHT22;447;51.332;6.778;2023-07-30T06:01:14;21.80;91.70
921;DHT22;447;51.332;6.778;2023-07-30T06:03:43;21.80;91.70
921;DHT22;447;51.332;6.778;2023-07-30T06:06:14;21.80;91.70
921;DHT22;447;51.332;6.778;2023-07-30T06:08:39;21.70;91.60
921;DHT22;447;51.332;6.778;2023-07-30T06:11:05;21.70;91.60
921;DHT22;447;51.332;6.778;2023-07-30T06:13:31;21.70;91.60
921;DHT22;447;51.332;6.778;2023-07-30T06:16:00;21.70;91.50
921;DHT22;447;51.332;6.778;2023-07-30T06:18:28;21.70;91.50
921;DHT22;447;51.332;6.778;2023-07-30T06:20:54;21.70;91.60
921;DHT22;447;51.332;6.778;2023-07-30T06:23:20;21.70;91.60
921;DHT22;447;51.332;6.778;2023-07-30T06:25:48;21.70;91.60
921;DHT22;447;51.332;6.778;2023-07-30T06:28:19;21.70;91.60
921;DHT22;447;51.332;6.778;2023-07-30T06:30:45;21.70;91.60
921;DHT22;447;51.332;6.778;2023-07-30T06:33:13;21.70;91.60
921;DHT22;447;51.332;6.778;2023-07-30T06:35:39;21.60;91.50
921;DHT22;447;51.332;6.778;2023-07-30T06:38:11;21.60;91.40
921;DHT22;447;51.332;6.778;2023-07-30T06:40:37;21.60;91.40
921;DHT22;447;51.332;6.778;2023-07-30T06:43:05;21.60;91.40
921;DHT22;447;51.332;6.778;2023-07-30T06:45:33;21.60;91.50
921;DHT22;447;51.332;6.778;2023-07-30T06:48:04;21.60;91.50
921;DHT22;447;51.332;6.778;2023-07-30T06:50:30;21.60;91.50
921;DHT22;447;51.332;6.778;2023-07-30T06:52:58;21.50;91.50
921;DHT22;447;51.332;6.778;2023-07-30T06:55:24;21.60;91.50
921;DHT22;447;51.332;6.778;2023-07-30T06:57:53;21.50;91.50
921;DHT22;447;51.332;6.778;2023-07-30T07:00:19;21.60;91.50
921;DHT22;447;51.332;6.778;2023-07-30T07:02:52;21.50;91.50
921;DHT22;447;51.332;6.778;2023-07-30T07:05:18;21.60;91.60
921;DHT22;447;51.332;6.778;2023-07-30T07:07:44;21.60;91.60
921;DHT22;447;51.332;6.778;2023-07-30T07:10:13;21.50;91.50
921;DHT22;447;51.332;6.778;2023-07-30T07:12:40;21.50;91.50
921;DHT22;447;51.332;6.778;2023-07-30T07:15:07;21.50;91.50
921;DHT22;447;51.332;6.778;2023-07-30T07:17:33;21.50;91.50
921;DHT22;447;51.332;6.778;2023-07-30T07:19:59;21.50;91.50
921;DHT22;447;51.332;6.778;2023-07-30T07:22:25;21.50;91.50
921;DHT22;447;51.332;6.778;2023-07-30T07:24:52;21.50;91.50
921;DHT22;447;51.332;6.778;2023-07-30T07:27:19;21.50;91.50
921;DHT22;447;51.332;6.778;2023-07-30T07:29:46;21.50;91.50
921;DHT22;447;51.332;6.778;2023-07-30T07:32:12;21.50;91.50
921;DHT22;447;51.332;6.778;2023-07-30T07:34:38;21.50;91.50
921;DHT22;447;51.332;6.778;2023-07-30T07:37:05;21.50;91.60
921;DHT22;447;51.332;6.778;2023-07-30T07:39:32;21.50;91.60
921;DHT22;447;51.332;6.778;2023-07-30T07:41:59;21.40;91.50
921;DHT22;447;51.332;6.778;2023-07-30T07:44:25;21.50;91.60
921;DHT22;447;51.332;6.778;2023-07-30T07:46:51;21.50;91.60
921;DHT22;447;51.332;6.778;2023-07-30T07:49:22;21.40;91.60
921;DHT22;447;51.332;6.778;2023-07-30T07:51:48;21.50;91.70
921;DHT22;447;51.332;6.778;2023-07-30T07:54:18;21.40;91.70
921;DHT22;447;51.332;6.778;2023-07-30T07:56:49;21.40;91.70
921;DHT22;447;51.332;6.778;2023-07-30T07:59:19;21.40;91.70
921;DHT22;447;51.332;6.778;2023-07-30T08:01:45;21.50;91.90
921;DHT22;447;51.332;6.778;2023-07-30T08:04:14;21.40;92.20
921;DHT22;447;51.332;6.778;2023-07-30T08:06:44;21.40;92.40
921;DHT22;447;51.332;6.778;2023-07-30T08:09:10;21.40;92.40
921;DHT22;447;51.332;6.778;2023-07-30T08:11:36;21.40;92.30
921;DHT22;447;51.332;6.778;2023-07-30T08:14:02;21.40;92.30
921;DHT22;447;51.332;6.778;2023-07-30T08:16:31;21.40;92.20
921;DHT22;447;51.332;6.778;2023-07-30T08:18:57;21.40;92.20
921;DHT22;447;51.332;6.778;2023-07-30T08:21:23;21.40;92.20
921;DHT22;447;51.332;6.778;2023-07-30T08:23:49;21.40;92.20
921;DHT22;447;51.332;6.778;2023-07-30T08:26:15;21.40;92.10
921;DHT22;447;51.332;6.778;2023-07-30T08:28:40;21.40;92.10
921;DHT22;447;51.332;6.778;2023-07-30T08:31:09;21.40;92.10
921;DHT22;447;51.332;6.778;2023-07-30T08:33:35;21.40;92.10
921;DHT22;447;51.332;6.778;2023-07-30T08:36:10;21.40;92.10
921;DHT22;447;51.332;6.778;2023-07-30T08:38:39;21.40;92.10
921;DHT22;447;51.332;6.778;2023-07-30T08:41:05;21.40;92.10
921;DHT22;447;51.332;6.778;2023-07-30T08:43:34;21.40;92.10
921;DHT22;447;51.332;6.778;2023-07-30T08:46:01;21.40;92.10
921;DHT22;447;51.332;6.778;2023-07-30T08:48:28;21.40;92.10
921;DHT22;447;51.332;6.778;2023-07-30T08:50:59;21.40;92.10
921;DHT22;447;51.332;6.778;2023-07-30T08:53:26;21.40;92.40
921;DHT22;447;51.332;6.778;2023-07-30T08:55:55;21.40;92.10
921;DHT22;447;51.332;6.778;2023-07-30T08:58:26;21.40;92.10
921;DHT22;447;51.332;6.778;2023-07-30T09:00:55;21.40;92.10
921;DHT22;447;51.332;6.778;2023-07-30T09:03:23;21.40;92.10
921;DHT22;447;51.332;6.778;2023-07-30T09:05:50;21.40;92.10
921;DHT22;447;51.332;6.778;2023-07-30T09:08:17;21.40;92.10
921;DHT22;447;51.332;6.778;2023-07-30T09:10:43;21.40;92.10
921;DHT22;447;51.332;6.778;2023-07-30T09:13:09;21.40;92.10
921;DHT22;447;51.332;6.778;2023-07-30T09:15:38;21.40;92.10
921;DHT22;447;51.332;6.778;2023-07-30T09:18:06;21.40;92.10
921;DHT22;447;51.332;6.778;2023-07-30T09:20:41;21.40;92.10
921;DHT22;447;51.332;6.778;2023-07-30T09:23:08;21.40;92.10
921;DHT22;447;51.332;6.778;2023-07-30T09:25:35;21.40;92.00
921;DHT22;447;51.332;6.778;2023-07-30T09:28:05;21.40;92.00
921;DHT22;447;51.332;6.778;2023-07-30T09:30:32;21.40;92.20
921;DHT22;447;51.332;6.778;2023-07-30T09:32:59;21.40;92.30
921;DHT22;447;51.332;6.778;2023-07-30T09:35:26;21.50;92.30
921;DHT22;447;51.332;6.778;2023-07-30T09:38:03;21.50;92.20
921;DHT22;447;51.332;6.778;2023-07-30T09:40:35;21.50;92.20
921;DHT22;447;51.332;6.778;2023-07-30T09:43:05;21.50;92.20
921;DHT22;447;51.332;6.778;2023-07-30T09:45:36;21.50;92.20
921;DHT22;447;51.332;6.778;2023-07-30T09:48:05;21.50;92.20
921;DHT22;447;51.332;6.778;2023-07-30T09:50:35;21.50;92.10
921;DHT22;447;51.332;6.778;2023-07-30T09:53:04;21.60;92.10
921;DHT22;447;51.332;6.778;2023-07-30T09:55:32;21.60;92.00
921;DHT22;447;51.332;6.778;2023-07-30T09:57:58;21.50;91.90
921;DHT22;447;51.332;6.778;2023-07-30T10:00:29;21.60;91.80
921;DHT22;447;51.332;6.778;2023-07-30T10:02:58;21.60;91.70
921;DHT22;447;51.332;6.778;2023-07-30T10:05:27;21.60;91.70
921;DHT22;447;51.332;6.778;2023-07-30T10:07:59;21.60;91.70
921;DHT22;447;51.332;6.778;2023-07-30T10:10:26;21.70;91.60
921;DHT22;447;51.332;6.778;2023-07-30T10:13:05;21.60;91.60
921;DHT22;447;51.332;6.778;2023-07-30T10:15:34;21.70;91.70
921;DHT22;447;51.332;6.778;2023-07-30T10:18:03;21.70;91.60
921;DHT22;447;51.332;6.778;2023-07-30T10:20:31;21.70;91.60
921;DHT22;447;51.332;6.778;2023-07-30T10:23:26;21.70;91.50
921;DHT22;447;51.332;6.778;2023-07-30T10:25:52;21.70;91.40
921;DHT22;447;51.332;6.778;2023-07-30T10:28:47;21.80;91.40
921;DHT22;447;51.332;6.778;2023-07-30T10:31:41;21.80;91.30
921;DHT22;447;51.332;6.778;2023-07-30T10:34:09;21.80;91.20
921;DHT22;447;51.332;6.778;2023-07-30T10:36:55;21.80;91.20
921;DHT22;447;51.332;6.778;2023-07-30T10:39:26;21.90;91.20
921;DHT22;447;51.332;6.778;2023-07-30T10:41:58;21.90;91.20
921;DHT22;447;51.332;6.778;2023-07-30T10:44:27;21.90;91.20
921;DHT22;447;51.332;6.778;2023-07-30T10:46:57;21.90;91.10
921;DHT22;447;51.332;6.778;2023-07-30T10:49:24;21.90;91.10
921;DHT22;447;51.332;6.778;2023-07-30T10:51:56;21.90;91.00
921;DHT22;447;51.332;6.778;2023-07-30T10:54:23;21.90;90.90
921;DHT22;447;51.332;6.778;2023-07-30T10:56:49;22.00;90.60
921;DHT22;447;51.332;6.778;2023-07-30T10:59:16;22.00;90.50
921;DHT22;447;51.332;6.778;2023-07-30T11:01:43;22.00;90.40
921;DHT22;447;51.332;6.778;2023-07-30T11:04:17;22.00;90.30
921;DHT22;447;51.332;6.778;2023-07-30T11:06:48;22.00;90.20
921;DHT22;447;51.332;6.778;2023-07-30T11:09:25;22.00;90.10
921;DHT22;447;51.332;6.778;2023-07-30T11:11:53;22.00;90.10
921;DHT22;447;51.332;6.778;2023-07-30T11:14:22;22.00;90.10
921;DHT22;447;51.332;6.778;2023-07-30T11:16:59;22.00;90.10
921;DHT22;447;51.332;6.778;2023-07-30T11:19:26;22.10;90.20
921;DHT22;447;51.332;6.778;2023-07-30T11:21:54;22.10;90.20
921;DHT22;447;51.332;6.778;2023-07-30T11:24:20;22.10;90.20
921;DHT22;447;51.332;6.778;2023-07-30T11:27:01;22.10;90.10
921;DHT22;447;51.332;6.778;2023-07-30T11:29:32;22.10;90.10
921;DHT22;447;51.332;6.778;2023-07-30T11:31:59;22.10;90.10
921;DHT22;447;51.332;6.778;2023-07-30T11:34:27;22.10;89.90
921;DHT22;447;51.332;6.778;2023-07-30T11:36:58;22.20;89.70
921;DHT22;447;51.332;6.778;2023-07-30T11:39:26;22.20;89.40
921;DHT22;447;51.332;6.778;2023-07-30T11:41:59;22.20;89.20
921;DHT22;447;51.332;6.778;2023-07-30T11:44:36;22.20;89.00
921;DHT22;447;51.332;6.778;2023-07-30T11:47:06;22.30;89.00
921;DHT22;447;51.332;6.778;2023-07-30T11:49:35;22.30;89.00
921;DHT22;447;51.332;6.778;2023-07-30T11:52:09;22.30;89.00
921;DHT22;447;51.332;6.778;2023-07-30T11:54:35;22.30;88.80
921;DHT22;447;51.332;6.778;2023-07-30T11:57:01;22.30;88.40
921;DHT22;447;51.332;6.778;2023-07-30T11:59:27;22.40;88.40
921;DHT22;447;51.332;6.778;2023-07-30T12:01:53;22.40;88.60
921;DHT22;447;51.332;6.778;2023-07-30T12:04:51;22.40;88.50
921;DHT22;447;51.332;6.778;2023-07-30T12:07:25;22.40;88.50
921;DHT22;447;51.332;6.778;2023-07-30T12:09:54;22.40;87.90
921;DHT22;447;51.332;6.778;2023-07-30T12:12:25;22.50;88.10
921;DHT22;447;51.332;6.778;2023-07-30T12:17:18;22.50;88.00
921;DHT22;447;51.332;6.778;2023-07-30T12:19:44;22.50;88.00
921;DHT22;447;51.332;6.778;2023-07-30T12:22:12;22.50;87.70
921;DHT22;447;51.332;6.778;2023-07-30T12:24:41;22.50;87.40
921;DHT22;447;51.332;6.778;2023-07-30T12:27:07;22.60;86.70
921;DHT22;447;51.332;6.778;2023-07-30T12:29:33;22.60;86.50
921;DHT22;447;51.332;6.778;2023-07-30T12:32:01;22.60;86.10
921;DHT22;447;51.332;6.778;2023-07-30T12:34:27;22.60;86.10
921;DHT22;447;51.332;6.778;2023-07-30T12:36:57;22.60;85.30
921;DHT22;447;51.332;6.778;2023-07-30T12:39:24;22.60;85.70
921;DHT22;447;51.332;6.778;2023-07-30T12:41:50;22.70;85.70
921;DHT22;447;51.332;6.778;2023-07-30T12:44:15;22.70;85.30
921;DHT22;447;51.332;6.778;2023-07-30T12:46:42;22.70;84.50
921;DHT22;447;51.332;6.778;2023-07-30T12:49:07;22.70;84.50
921;DHT22;447;51.332;6.778;2023-07-30T12:51:33;22.70;84.50
921;DHT22;447;51.332;6.778;2023-07-30T12:54:06;22.70;83.80
921;DHT22;447;51.332;6.778;2023-07-30T12:56:34;22.70;83.80
921;DHT22;447;51.332;6.778;2023-07-30T12:59:00;22.70;83.70
921;DHT22;447;51.332;6.778;2023-07-30T13:01:26;22.70;83.40
921;DHT22;447;51.332;6.778;2023-07-30T13:03:52;22.80;83.70
921;DHT22;447;51.332;6.778;2023-07-30T13:06:23;22.80;83.80
921;DHT22;447;51.332;6.778;2023-07-30T13:08:51;22.80;83.60
921;DHT22;447;51.332;6.778;2023-07-30T13:11:17;22.80;83.40
921;DHT22;447;51.332;6.778;2023-07-30T13:13:45;22.80;82.90
921;DHT22;447;51.332;6.778;2023-07-30T13:16:11;22.90;83.30
921;DHT22;447;51.332;6.778;2023-07-30T13:18:37;22.90;83.00
921;DHT22;447;51.332;6.778;2023-07-30T13:21:03;22.90;82.90
921;DHT22;447;51.332;6.778;2023-07-30T13:23:29;22.90;82.40
921;DHT22;447;51.332;6.778;2023-07-30T13:25:56;22.90;82.50
921;DHT22;447;51.332;6.778;2023-07-30T13:28:22;22.90;82.40
921;DHT22;447;51.332;6.778;2023-07-30T13:30:48;23.00;82.60
921;DHT22;447;51.332;6.778;2023-07-30T13:33:18;23.00;82.30
921;DHT22;447;51.332;6.778;2023-07-30T13:35:46;23.00;82.40
921;DHT22;447;51.332;6.778;2023-07-30T13:38:14;23.00;82.00
921;DHT22;447;51.332;6.778;2023-07-30T13:40:40;23.00;82.10
921;DHT22;447;51.332;6.778;2023-07-30T13:43:08;23.10;82.00
921;DHT22;447;51.332;6.778;2023-07-30T13:45:36;23.10;81.60
921;DHT22;447;51.332;6.778;2023-07-30T13:48:05;23.10;81.30
921;DHT22;447;51.332;6.778;2023-07-30T13:50:31;23.10;81.20
921;DHT22;447;51.332;6.778;2023-07-30T13:52:56;23.20;81.20
921;DHT22;447;51.332;6.778;2023-07-30T13:55:22;23.20;81.20
921;DHT22;447;51.332;6.778;2023-07-30T13:57:48;23.20;81.40
921;DHT22;447;51.332;6.778;2023-07-30T14:00:14;23.20;81.50
921;DHT22;447;51.332;6.778;2023-07-30T14:02:40;23.20;81.70
921;DHT22;447;51.332;6.778;2023-07-30T14:05:06;23.30;81.80
921;DHT22;447;51.332;6.778;2023-07-30T14:07:32;23.30;81.90
921;DHT22;447;51.332;6.778;2023-07-30T14:10:03;23.30;82.10
921;DHT22;447;51.332;6.778;2023-07-30T14:12:29;23.30;82.00
921;DHT22;447;51.332;6.778;2023-07-30T14:14:57;23.30;82.00
921;DHT22;447;51.332;6.778;2023-07-30T14:17:23;23.40;82.40
921;DHT22;447;51.332;6.778;2023-07-30T14:19:54;23.40;82.70
921;DHT22;447;51.332;6.778;2023-07-30T14:22:21;23.40;82.60
921;DHT22;447;51.332;6.778;2023-07-30T14:24:50;23.40;82.80
921;DHT22;447;51.332;6.778;2023-07-30T14:27:18;23.40;82.80
921;DHT22;447;51.332;6.778;2023-07-30T14:29:46;23.40;82.70
921;DHT22;447;51.332;6.778;2023-07-30T14:32:14;23.50;82.50
921;DHT22;447;51.332;6.778;2023-07-30T14:34:40;23.50;82.20
921;DHT22;447;51.332;6.778;2023-07-30T14:37:09;23.50;82.00
921;DHT22;447;51.332;6.778;2023-07-30T14:39:35;23.50;81.80
921;DHT22;447;51.332;6.778;2023-07-30T14:42:03;23.60;82.70
921;DHT22;447;51.332;6.778;2023-07-30T14:44:29;23.50;81.30
921;DHT22;447;51.332;6.778;2023-07-30T14:46:59;23.60;81.40
921;DHT22;447;51.332;6.778;2023-07-30T14:49:27;23.60;81.30
921;DHT22;447;51.332;6.778;2023-07-30T14:51:53;23.60;80.90
921;DHT22;447;51.332;6.778;2023-07-30T14:54:20;23.70;81.10
921;DHT22;447;51.332;6.778;2023-07-30T14:56:48;23.70;81.20
921;DHT22;447;51.332;6.778;2023-07-30T14:59:16;23.70;81.10
921;DHT22;447;51.332;6.778;2023-07-30T15:01:42;23.70;80.90
921;DHT22;447;51.332;6.778;2023-07-30T15:04:10;23.70;81.00
921;DHT22;447;51.332;6.778;2023-07-30T15:06:41;23.70;80.90
921;DHT22;447;51.332;6.778;2023-07-30T15:09:09;23.70;80.80
921;DHT22;447;51.332;6.778;2023-07-30T15:11:38;23.70;81.10
921;DHT22;447;51.332;6.778;2023-07-30T15:14:03;23.80;81.50
921;DHT22;447;51.332;6.778;2023-07-30T15:16:29;23.70;81.50
921;DHT22;447;51.332;6.778;2023-07-30T15:18:55;23.80;81.50
921;DHT22;447;51.332;6.778;2023-07-30T15:21:25;23.80;81.80
921;DHT22;447;51.332;6.778;2023-07-30T15:23:50;23.80;81.90
921;DHT22;447;51.332;6.778;2023-07-30T15:26:19;23.80;81.60
921;DHT22;447;51.332;6.778;2023-07-30T15:28:49;23.80;81.00
921;DHT22;447;51.332;6.778;2023-07-30T15:31:17;23.90;80.40
921;DHT22;447;51.332;6.778;2023-07-30T15:33:43;23.90;78.60
921;DHT22;447;51.332;6.778;2023-07-30T15:36:11;23.90;78.40
921;DHT22;447;51.332;6.778;2023-07-30T15:38:38;23.90;78.30
921;DHT22;447;51.332;6.778;2023-07-30T15:41:06;23.90;77.90
921;DHT22;447;51.332;6.778;2023-07-30T15:43:32;23.90;77.80
921;DHT22;447;51.332;6.778;2023-07-30T15:45:58;23.90;78.00
921;DHT22;447;51.332;6.778;2023-07-30T15:48:30;23.90;77.70
921;DHT22;447;51.332;6.778;2023-07-30T15:50:56;23.90;77.80
921;DHT22;447;51.332;6.778;2023-07-30T15:53:25;23.90;77.90
921;DHT22;447;51.332;6.778;2023-07-30T15:55:51;23.90;77.30
921;DHT22;447;51.332;6.778;2023-07-30T15:58:17;24.00;77.60
921;DHT22;447;51.332;6.778;2023-07-30T16:00:43;24.00;77.10
921;DHT22;447;51.332;6.778;2023-07-30T16:03:11;24.00;77.50
921;DHT22;447;51.332;6.778;2023-07-30T16:05:37;24.10;77.10
921;DHT22;447;51.332;6.778;2023-07-30T16:08:04;24.10;76.70
921;DHT22;447;51.332;6.778;2023-07-30T16:10:30;24.10;76.40
921;DHT22;447;51.332;6.778;2023-07-30T16:12:59;24.20;76.00
921;DHT22;447;51.332;6.778;2023-07-30T16:15:28;24.20;75.70
921;DHT22;447;51.332;6.778;2023-07-30T16:17:54;24.20;75.80
921;DHT22;447;51.332;6.778;2023-07-30T16:20:20;24.30;76.00
921;DHT22;447;51.332;6.778;2023-07-30T16:22:49;24.30;76.40
921;DHT22;447;51.332;6.778;2023-07-30T16:25:17;24.30;76.60
921;DHT22;447;51.332;6.778;2023-07-30T16:27:45;24.40;76.70
921;DHT22;447;51.332;6.778;2023-07-30T16:30:16;24.40;75.90
921;DHT22;447;51.332;6.778;2023-07-30T16:32:41;24.40;75.70
921;DHT22;447;51.332;6.778;2023-07-30T16:35:08;24.40;75.30
921;DHT22;447;51.332;6.778;2023-07-30T16:37:36;24.50;74.60
921;DHT22;447;51.332;6.778;2023-07-30T16:40:04;24.50;75.10
921;DHT22;447;51.332;6.778;2023-07-30T16:42:30;24.50;74.80